Time;durP1;ratioP1;P1;durP2;ratioP2;P2;SDS_P1;SDS_P2;PMS_P1;PMS_P2;Temp;Humidity;BMP_temperature;BMP_pressure;BME280_temperature;BME280_humidity;BME280_pressure;Samples;Min_cycle;Max_cycle;Signal;HPM_P1;HPM_P2
2023/12/19 00:01:15;;;;;;;7.83;6.77;;;8.40;99.90;;;;;;4998522;28;20584;-94
2023/12/19 00:03:41;;;;;;;7.23;6.50;;;8.40;99.90;;;;;;4981793;28;20428;-93
2023/12/19 00:06:07;;;;;;;8.70;7.10;;;8.40;99.90;;;;;;4982161;28;21090;-94
2023/12/19 00:08:33;;;;;;;9.93;7.20;;;8.40;99.90;;;;;;4997617;28;20417;-93
2023/12/19 00:10:59;;;;;;;11.20;7.00;;;8.40;99.90;;;;;;5001452;28;20522;-93
2023/12/19 00:13:28;;;;;;;10.97;7.37;;;8.40;99.90;;;;;;5002028;28;20468;-93
2023/12/19 00:15:54;;;;;;;9.80;7.00;;;8.40;99.90;;;;;;4982400;28;20497;-93
2023/12/19 00:18:20;;;;;;;7.13;6.43;;;8.40;99.90;;;;;;4982171;28;20428;-94
2023/12/19 00:20:46;;;;;;;8.27;6.60;;;8.40;99.90;;;;;;4983028;28;20527;-91
2023/12/19 00:23:12;;;;;;;7.50;6.50;;;8.40;99.90;;;;;;4965720;28;20482;-91
2023/12/19 00:25:38;;;;;;;8.50;7.53;;;8.40;99.90;;;;;;4967590;28;20513;-92
2023/12/19 00:28:05;;;;;;;11.50;6.50;;;8.40;99.90;;;;;;4962471;28;20452;-93
2023/12/19 00:30:31;;;;;;;9.20;6.40;;;8.40;99.90;;;;;;4962658;28;20437;-93
2023/12/19 00:32:57;;;;;;;8.17;7.40;;;8.40;99.90;;;;;;4987348;28;20447;-93
2023/12/19 00:35:23;;;;;;;7.60;6.67;;;8.40;99.90;;;;;;4982943;28;20467;-93
2023/12/19 00:37:49;;;;;;;9.10;7.17;;;8.40;99.90;;;;;;4962233;28;20497;-92
2023/12/19 00:40:15;;;;;;;11.37;7.47;;;8.40;99.90;;;;;;4959930;28;20798;-92
2023/12/19 00:42:42;;;;;;;10.03;6.63;;;8.40;99.90;;;;;;4967805;28;20500;-92
2023/12/19 00:45:08;;;;;;;7.60;6.60;;;8.40;99.90;;;;;;4978463;28;20851;-92
2023/12/19 00:47:34;;;;;;;10.03;7.57;;;8.40;99.90;;;;;;4975331;28;21323;-91
2023/12/19 00:50:00;;;;;;;8.20;6.73;;;8.40;99.90;;;;;;4964860;28;20431;-92
2023/12/19 00:52:27;;;;;;;9.00;7.83;;;8.40;99.90;;;;;;4997486;28;20987;-91
2023/12/19 00:54:53;;;;;;;13.00;8.17;;;8.40;99.90;;;;;;4984391;28;20439;-94
2023/12/19 00:57:19;;;;;;;9.80;6.80;;;8.40;99.90;;;;;;4972241;28;20466;-91
2023/12/19 00:59:45;;;;;;;8.60;6.70;;;8.40;99.90;;;;;;4981312;28;20491;-92
2023/12/19 01:02:11;;;;;;;9.47;6.97;;;8.40;99.90;;;;;;4962192;28;20918;-90
2023/12/19 01:04:39;;;;;;;8.30;6.77;;;8.40;99.90;;;;;;4978716;28;20448;-92
2023/12/19 01:07:08;;;;;;;9.00;7.13;;;8.40;99.90;;;;;;4994540;28;20428;-91
2023/12/19 01:09:35;;;;;;;9.10;6.60;;;8.40;99.90;;;;;;4968353;28;20464;-91
2023/12/19 01:15:26;;;;;;;7.33;6.30;;;8.40;99.90;;;;;;4915815;29;20463;-93
2023/12/19 01:17:52;;;;;;;8.03;5.90;;;8.40;99.90;;;;;;4927665;29;20942;-93
2023/12/19 01:20:20;;;;;;;9.27;6.80;;;8.40;99.90;;;;;;4939432;29;20559;-90
2023/12/19 01:22:51;;;;;;;8.77;6.97;;;8.30;99.90;;;;;;4920150;29;20434;-91
2023/12/19 01:25:19;;;;;;;9.57;6.10;;;8.30;99.90;;;;;;4905815;29;20496;-92
2023/12/19 01:27:47;;;;;;;10.43;6.43;;;8.30;99.90;;;;;;4918574;29;20428;-93
2023/12/19 01:30:17;;;;;;;7.70;6.63;;;8.30;99.90;;;;;;4918355;29;20451;-92
2023/12/19 01:32:45;;;;;;;10.30;6.73;;;8.30;99.90;;;;;;4905699;29;20436;-92
2023/12/19 01:35:16;;;;;;;10.70;7.23;;;8.30;99.90;;;;;;4917990;29;20448;-92
2023/12/19 01:37:49;;;;;;;7.13;6.00;;;8.30;99.90;;;;;;4887626;29;20478;-92
2023/12/19 01:40:20;;;;;;;9.50;6.20;;;8.40;99.90;;;;;;4918149;29;20472;-92
2023/12/19 01:42:45;;;;;;;8.03;6.23;;;8.30;99.90;;;;;;4902098;29;21051;-88
2023/12/19 01:45:13;;;;;;;13.07;7.23;;;8.30;99.90;;;;;;4933684;29;20452;-91
2023/12/19 01:47:44;;;;;;;7.67;5.93;;;8.40;99.90;;;;;;4906538;29;20456;-89
2023/12/19 01:50:12;;;;;;;7.93;6.30;;;8.40;99.90;;;;;;4902267;29;20488;-89
2023/12/19 01:52:50;;;;;;;8.03;6.40;;;8.40;99.90;;;;;;4965641;28;20432;-91
2023/12/19 01:55:19;;;;;;;9.40;6.20;;;8.40;99.90;;;;;;4977049;28;20449;-92
2023/12/19 01:57:47;;;;;;;9.23;6.87;;;8.30;99.90;;;;;;4986541;28;20718;-94
2023/12/19 02:00:14;;;;;;;7.40;6.60;;;8.40;99.90;;;;;;4964882;28;20479;-94
2023/12/19 02:02:45;;;;;;;8.10;6.53;;;8.30;99.90;;;;;;4964551;28;20460;-94
2023/12/19 02:05:14;;;;;;;8.13;6.60;;;8.30;99.90;;;;;;4983771;28;20431;-88
2023/12/19 02:07:46;;;;;;;8.40;6.50;;;8.30;99.90;;;;;;4981088;28;20434;-94
2023/12/19 02:10:17;;;;;;;7.87;6.53;;;8.40;99.90;;;;;;4989155;28;20421;-93
2023/12/19 02:12:44;;;;;;;6.20;5.50;;;8.40;99.90;;;;;;5015847;28;20441;-94
2023/12/19 02:15:11;;;;;;;8.50;6.00;;;8.40;99.90;;;;;;4984198;28;20464;-91
2023/12/19 02:17:40;;;;;;;7.93;6.20;;;8.30;99.90;;;;;;4989553;28;20439;-90
2023/12/19 02:20:09;;;;;;;9.07;6.53;;;8.40;99.90;;;;;;4994782;28;20572;-94
2023/12/19 02:22:37;;;;;;;7.03;5.90;;;8.40;99.90;;;;;;4969590;28;20616;-93
2023/12/19 02:25:08;;;;;;;7.80;5.80;;;8.40;99.90;;;;;;4972227;28;20426;-95
2023/12/19 02:27:41;;;;;;;9.03;6.77;;;8.40;99.90;;;;;;4971841;28;20497;-92
2023/12/19 02:30:07;;;;;;;7.30;6.30;;;8.40;99.90;;;;;;5000180;28;20481;-94
2023/12/19 02:33:02;;;;;;;7.63;6.20;;;8.40;99.90;;;;;;4984426;28;20436;-93
2023/12/19 02:35:36;;;;;;;8.90;6.27;;;8.40;99.90;;;;;;4987833;28;20450;-88
2023/12/19 02:38:06;;;;;;;7.40;6.60;;;8.30;99.90;;;;;;4967122;28;20523;-90
2023/12/19 02:40:37;;;;;;;9.00;6.40;;;8.40;99.90;;;;;;4992230;28;20480;-94
2023/12/19 02:43:08;;;;;;;7.23;6.23;;;8.40;99.90;;;;;;4972719;28;20436;-91
2023/12/19 02:45:38;;;;;;;8.50;6.27;;;8.40;99.90;;;;;;4983235;28;20450;-88
2023/12/19 02:48:14;;;;;;;10.00;7.13;;;8.40;99.90;;;;;;5000255;28;20436;-93
2023/12/19 02:50:47;;;;;;;11.13;7.90;;;8.40;99.90;;;;;;5021408;28;20835;-93
2023/12/19 02:53:15;;;;;;;9.07;7.50;;;8.40;99.90;;;;;;4983038;28;20800;-91
2023/12/19 02:55:48;;;;;;;8.30;7.20;;;8.40;99.90;;;;;;4980279;28;20440;-93
2023/12/19 02:58:14;;;;;;;8.53;7.63;;;8.40;99.90;;;;;;4989730;28;20443;-93
2023/12/19 03:00:45;;;;;;;9.80;7.43;;;8.40;99.90;;;;;;4995659;28;20611;-92
2023/12/19 03:03:11;;;;;;;7.63;6.90;;;8.40;99.90;;;;;;4967321;28;20465;-90
2023/12/19 03:05:41;;;;;;;9.70;7.70;;;8.40;99.90;;;;;;4991926;28;20712;-93
2023/12/19 03:08:12;;;;;;;8.80;7.30;;;8.40;99.90;;;;;;5003399;28;20420;-92
2023/12/19 03:10:45;;;;;;;7.90;6.80;;;8.40;99.90;;;;;;4998094;28;20520;-95
2023/12/19 03:13:18;;;;;;;10.17;7.90;;;8.40;99.90;;;;;;4967910;28;20456;-92
2023/12/19 03:15:47;;;;;;;9.97;7.17;;;8.40;99.90;;;;;;4982681;28;20451;-90
2023/12/19 03:18:13;;;;;;;8.87;7.60;;;8.40;99.90;;;;;;4982389;28;20437;-91
2023/12/19 03:20:43;;;;;;;10.53;8.40;;;8.40;99.90;;;;;;4985348;28;20482;-92
2023/12/19 03:23:13;;;;;;;8.07;7.27;;;8.40;99.90;;;;;;4978332;28;20428;-91
2023/12/19 03:25:41;;;;;;;10.80;7.70;;;8.40;99.90;;;;;;4998306;28;20453;-91
2023/12/19 03:28:09;;;;;;;11.30;8.43;;;8.40;99.90;;;;;;4974269;28;20421;-93
2023/12/19 03:30:35;;;;;;;8.00;7.20;;;8.30;99.90;;;;;;4996375;28;20536;-95
2023/12/19 03:33:04;;;;;;;9.10;7.63;;;8.30;99.90;;;;;;5019556;28;20464;-90
2023/12/19 03:35:31;;;;;;;9.70;7.57;;;8.40;99.90;;;;;;4976770;28;20534;-94
2023/12/19 03:37:59;;;;;;;9.53;7.37;;;8.30;99.90;;;;;;4973914;28;20455;-93
2023/12/19 03:40:30;;;;;;;8.33;7.17;;;8.40;99.90;;;;;;4986302;28;20465;-94
2023/12/19 03:42:55;;;;;;;9.70;7.23;;;8.30;99.90;;;;;;4982433;28;20435;-94
2023/12/19 03:45:21;;;;;;;8.90;7.80;;;8.40;99.90;;;;;;4987370;28;20547;-95
2023/12/19 03:47:47;;;;;;;8.73;7.37;;;8.40;99.90;;;;;;4982998;28;20457;-95
2023/12/19 03:50:15;;;;;;;8.97;6.80;;;8.40;99.90;;;;;;4978252;28;20436;-90
2023/12/19 03:52:43;;;;;;;10.27;7.80;;;8.40;99.90;;;;;;5024106;28;20205;-93
2023/12/19 03:55:09;;;;;;;10.33;8.50;;;8.40;99.90;;;;;;4963408;28;20480;-92
2023/12/19 03:57:45;;;;;;;8.17;6.80;;;8.40;99.90;;;;;;4996072;28;20460;-93
2023/12/19 04:00:13;;;;;;;9.00;7.57;;;8.40;99.90;;;;;;4982395;28;20471;-91
2023/12/19 04:02:44;;;;;;;8.73;7.43;;;8.40;99.90;;;;;;4980717;28;20436;-93
2023/12/19 04:05:12;;;;;;;8.90;8.00;;;8.40;99.90;;;;;;4981132;28;20502;-93
2023/12/19 04:07:40;;;;;;;8.67;6.80;;;8.30;99.90;;;;;;4958567;28;20434;-94
2023/12/19 04:10:06;;;;;;;9.30;7.97;;;8.40;99.90;;;;;;4994214;28;20466;-93
2023/12/19 04:12:34;;;;;;;8.87;7.97;;;8.40;99.90;;;;;;4990915;28;20197;-93
2023/12/19 04:15:06;;;;;;;9.03;6.87;;;8.40;99.90;;;;;;4995421;28;20455;-95
2023/12/19 04:17:35;;;;;;;10.67;7.93;;;8.30;99.90;;;;;;4974776;28;21012;-94
2023/12/19 04:20:06;;;;;;;9.00;8.10;;;8.30;99.90;;;;;;4958449;28;20461;-93
2023/12/19 04:22:36;;;;;;;8.90;7.90;;;8.40;99.90;;;;;;4998982;28;20555;-94
2023/12/19 04:25:06;;;;;;;9.93;7.50;;;8.30;99.90;;;;;;4989848;28;20741;-93
2023/12/19 04:27:37;;;;;;;9.47;7.47;;;8.30;99.90;;;;;;4985812;28;20441;-94
2023/12/19 04:30:08;;;;;;;9.53;8.10;;;8.40;99.90;;;;;;4964869;28;20452;-92
2023/12/19 04:32:36;;;;;;;9.33;8.00;;;8.30;99.90;;;;;;5020518;28;20419;-93
2023/12/19 04:35:05;;;;;;;8.43;7.53;;;8.30;99.90;;;;;;4976772;28;20457;-92
2023/12/19 04:37:31;;;;;;;11.23;8.43;;;8.30;99.90;;;;;;5009340;28;20435;-92
2023/12/19 04:39:59;;;;;;;10.60;8.30;;;8.40;99.90;;;;;;4981143;28;21085;-93
2023/12/19 04:42:32;;;;;;;9.60;8.60;;;8.30;99.90;;;;;;4999960;28;20245;-91
2023/12/19 04:45:01;;;;;;;9.37;7.57;;;8.30;99.90;;;;;;4997636;28;20444;-91
2023/12/19 04:47:29;;;;;;;9.43;8.40;;;8.30;99.90;;;;;;4973836;28;20467;-93
2023/12/19 04:49:57;;;;;;;10.00;7.47;;;8.30;99.90;;;;;;4993989;28;20446;-92
2023/12/19 04:52:25;;;;;;;9.60;8.00;;;8.30;99.90;;;;;;4975653;28;20504;-95
2023/12/19 04:55:01;;;;;;;9.77;8.40;;;8.30;99.90;;;;;;5000730;28;21428;-95
2023/12/19 04:57:29;;;;;;;9.67;7.43;;;8.30;99.90;;;;;;4969457;28;20460;-93
2023/12/19 05:00:06;;;;;;;8.90;7.53;;;8.30;99.90;;;;;;4997345;28;20538;-94
2023/12/19 05:02:38;;;;;;;7.20;6.47;;;8.30;99.90;;;;;;5006736;28;20471;-94
2023/12/19 05:05:09;;;;;;;9.17;7.17;;;8.30;99.90;;;;;;4966740;28;20436;-90
2023/12/19 05:07:37;;;;;;;11.37;8.67;;;8.30;99.90;;;;;;4994688;28;21089;-91
2023/12/19 05:10:08;;;;;;;9.20;7.87;;;8.30;99.90;;;;;;4994034;28;20424;-95
2023/12/19 05:12:38;;;;;;;8.33;7.23;;;8.30;99.90;;;;;;4971495;23;20511;-37
2023/12/19 05:15:04;;;;;;;8.73;7.60;;;8.30;99.90;;;;;;4957898;28;20520;-34
2023/12/19 05:17:31;;;;;;;9.90;8.10;;;8.30;99.90;;;;;;4960839;28;20496;-35
2023/12/19 05:19:59;;;;;;;9.67;8.33;;;8.30;99.90;;;;;;4969473;28;20986;-34
2023/12/19 05:22:28;;;;;;;9.07;7.27;;;8.30;99.90;;;;;;4966683;28;20434;-34
2023/12/19 05:24:54;;;;;;;8.80;7.40;;;8.30;99.90;;;;;;4961355;28;20493;-36
2023/12/19 05:27:20;;;;;;;12.60;8.73;;;8.30;99.90;;;;;;4951238;28;20437;-34
2023/12/19 05:29:48;;;;;;;8.10;7.30;;;8.30;99.90;;;;;;4953227;28;20418;-33
2023/12/19 05:32:15;;;;;;;11.30;8.23;;;8.30;99.90;;;;;;4968214;28;20446;-31
2023/12/19 05:34:41;;;;;;;9.17;7.80;;;8.30;99.90;;;;;;4973331;28;21283;-35
2023/12/19 05:37:07;;;;;;;9.57;7.83;;;8.30;99.90;;;;;;4963050;28;20825;-33
2023/12/19 05:39:33;;;;;;;9.70;7.70;;;8.30;99.90;;;;;;4970385;28;20479;-32
2023/12/19 05:42:04;;;;;;;9.37;7.20;;;8.30;99.90;;;;;;4952998;28;20520;-35
2023/12/19 05:44:30;;;;;;;8.87;7.40;;;8.30;99.90;;;;;;4978030;28;20486;-34
2023/12/19 05:47:00;;;;;;;8.13;7.37;;;8.30;99.90;;;;;;4974476;28;20501;-36
2023/12/19 05:49:26;;;;;;;8.27;7.43;;;8.30;99.90;;;;;;4965088;28;20585;-31
2023/12/19 05:51:55;;;;;;;8.50;6.80;;;8.30;99.90;;;;;;4983348;28;20429;-34
2023/12/19 05:54:23;;;;;;;8.10;6.70;;;8.30;99.90;;;;;;4980320;28;20421;-33
2023/12/19 05:56:50;;;;;;;8.23;7.00;;;8.30;99.90;;;;;;4963225;28;20450;-33
2023/12/19 05:59:19;;;;;;;8.47;7.57;;;8.30;99.90;;;;;;4966939;28;20429;-33
2023/12/19 06:01:45;;;;;;;9.37;8.47;;;8.30;99.90;;;;;;4945856;28;21196;-29
2023/12/19 06:04:15;;;;;;;9.43;8.10;;;8.30;99.90;;;;;;4975006;28;20452;-36
2023/12/19 06:06:44;;;;;;;8.73;7.17;;;8.30;99.90;;;;;;4970892;28;20496;-36
2023/12/19 06:09:11;;;;;;;7.53;6.63;;;8.30;99.90;;;;;;4962658;28;20561;-35
2023/12/19 06:11:37;;;;;;;9.40;7.53;;;8.30;99.90;;;;;;4970129;28;20464;-38
2023/12/19 06:14:08;;;;;;;7.17;6.27;;;8.30;99.90;;;;;;4969145;28;20461;-36
2023/12/19 06:16:36;;;;;;;9.23;7.37;;;8.30;99.90;;;;;;4974713;28;20454;-34
2023/12/19 06:19:05;;;;;;;7.77;6.93;;;8.30;99.90;;;;;;4965792;28;20944;-32
2023/12/19 06:21:31;;;;;;;7.90;6.67;;;8.30;99.90;;;;;;4968653;28;20513;-35
2023/12/19 06:23:59;;;;;;;7.10;6.40;;;8.30;99.90;;;;;;4979205;28;20448;-34
2023/12/19 06:26:25;;;;;;;10.47;6.80;;;8.30;99.90;;;;;;4974759;28;20871;-38
2023/12/19 06:28:51;;;;;;;8.40;6.50;;;8.30;99.90;;;;;;4967775;28;20429;-35
2023/12/19 06:31:19;;;;;;;8.30;7.13;;;8.30;99.90;;;;;;4977147;28;21221;-36
2023/12/19 06:33:45;;;;;;;7.70;6.53;;;8.30;99.90;;;;;;4976179;28;20984;-31
2023/12/19 06:36:31;;;;;;;8.30;6.30;;;8.30;99.90;;;;;;4957704;28;20454;-30
2023/12/19 06:39:00;;;;;;;6.60;6.00;;;8.30;99.90;;;;;;4970029;28;20856;-36
2023/12/19 06:41:29;;;;;;;6.87;6.17;;;8.30;99.90;;;;;;4969860;28;20781;-32
2023/12/19 06:43:56;;;;;;;8.63;6.07;;;8.30;99.90;;;;;;4972028;28;20445;-35
2023/12/19 06:46:24;;;;;;;7.73;6.10;;;8.30;99.90;;;;;;4978643;28;21023;-33
2023/12/19 06:48:50;;;;;;;7.17;5.90;;;8.30;99.90;;;;;;4952060;28;20433;-30
2023/12/19 06:51:23;;;;;;;6.87;6.17;;;8.30;99.90;;;;;;4972035;28;20446;-30
2023/12/19 06:53:56;;;;;;;5.93;5.33;;;8.30;99.90;;;;;;4969583;28;20583;-34
2023/12/19 06:56:26;;;;;;;8.60;6.30;;;8.30;99.90;;;;;;4951274;28;20917;-33
2023/12/19 06:58:53;;;;;;;7.87;6.30;;;8.30;99.90;;;;;;4955474;28;20901;-34
2023/12/19 07:01:19;;;;;;;6.73;6.10;;;8.30;99.90;;;;;;4977477;28;21086;-34
2023/12/19 07:03:45;;;;;;;6.00;5.40;;;8.30;99.90;;;;;;4971028;28;20816;-35
2023/12/19 07:06:14;;;;;;;6.67;6.07;;;8.30;99.90;;;;;;4971410;28;20442;-33
2023/12/19 07:08:41;;;;;;;7.57;5.50;;;8.30;99.90;;;;;;4973475;28;21100;-36
2023/12/19 07:11:08;;;;;;;5.87;5.27;;;8.30;99.90;;;;;;4963445;28;20922;-36
2023/12/19 07:13:37;;;;;;;6.83;5.10;;;8.30;99.90;;;;;;4945747;28;21787;-34
2023/12/19 07:16:03;;;;;;;6.27;5.67;;;8.40;99.90;;;;;;4964307;28;20462;-33
2023/12/19 07:18:30;;;;;;;6.90;5.73;;;8.30;99.90;;;;;;4956711;28;20547;-35
2023/12/19 07:20:56;;;;;;;6.57;5.67;;;8.30;99.90;;;;;;4948414;28;20846;-34
2023/12/19 07:23:22;;;;;;;5.70;5.20;;;8.30;99.90;;;;;;4968906;28;20896;-36
2023/12/19 07:25:50;;;;;;;6.17;5.57;;;8.40;99.90;;;;;;4965192;28;20455;-34
2023/12/19 07:28:16;;;;;;;7.20;6.00;;;8.40;99.90;;;;;;4969578;28;20458;-33
2023/12/19 07:30:45;;;;;;;5.90;5.40;;;8.40;99.90;;;;;;4972188;28;20437;-37
2023/12/19 07:33:16;;;;;;;5.57;5.00;;;8.40;99.90;;;;;;4980366;28;20968;-36
2023/12/19 07:35:42;;;;;;;5.47;4.97;;;8.40;99.90;;;;;;4963061;28;20970;-35
2023/12/19 07:38:11;;;;;;;6.00;5.00;;;8.40;99.90;;;;;;4963477;28;20513;-32
2023/12/19 07:40:37;;;;;;;5.83;5.33;;;8.40;99.90;;;;;;4956111;28;20472;-36
2023/12/19 07:43:03;;;;;;;6.10;5.50;;;8.40;99.90;;;;;;4976781;28;21346;-34
2023/12/19 07:45:32;;;;;;;7.17;5.30;;;8.40;99.90;;;;;;4955435;28;20455;-30
2023/12/19 07:47:58;;;;;;;5.10;4.60;;;8.40;99.90;;;;;;4976437;28;20856;-32
2023/12/19 07:50:27;;;;;;;6.90;5.20;;;8.40;99.90;;;;;;4950119;28;20443;-36
2023/12/19 07:52:53;;;;;;;6.17;5.57;;;8.40;99.90;;;;;;4967069;28;20885;-35
2023/12/19 07:55:19;;;;;;;5.77;5.23;;;8.40;99.90;;;;;;4964882;28;20458;-35
2023/12/19 07:57:48;;;;;;;5.50;4.80;;;8.40;99.90;;;;;;4991694;23;20493;-31
2023/12/19 08:00:14;;;;;;;5.07;4.60;;;8.40;99.90;;;;;;4980589;28;20736;-30
2023/12/19 08:02:42;;;;;;;5.73;4.63;;;8.40;99.90;;;;;;4979796;28;20418;-30
2023/12/19 08:05:10;;;;;;;5.43;4.80;;;8.40;99.90;;;;;;4980633;28;20410;-31
2023/12/19 08:07:36;;;;;;;6.13;5.13;;;8.40;99.90;;;;;;4982222;28;20434;-29
2023/12/19 08:10:04;;;;;;;7.27;4.27;;;8.40;99.90;;;;;;4982155;28;20421;-29
2023/12/19 08:12:30;;;;;;;9.30;4.93;;;8.40;99.90;;;;;;4986069;28;20809;-31
2023/12/19 08:14:56;;;;;;;5.53;4.80;;;8.40;99.90;;;;;;4984260;28;20410;-29
2023/12/19 08:17:25;;;;;;;5.77;4.70;;;8.40;99.90;;;;;;4981897;28;20975;-29
2023/12/19 08:19:51;;;;;;;5.27;4.77;;;8.40;99.90;;;;;;4981857;28;20639;-30
2023/12/19 08:22:17;;;;;;;6.07;5.47;;;8.40;99.90;;;;;;4980301;28;20433;-31
2023/12/19 08:24:43;;;;;;;5.77;5.23;;;8.50;99.90;;;;;;4979577;28;20495;-31
2023/12/19 08:27:11;;;;;;;6.10;5.50;;;8.50;99.90;;;;;;4983479;28;20509;-29
2023/12/19 08:29:43;;;;;;;8.33;4.97;;;8.40;99.90;;;;;;4998514;28;20834;-30
2023/12/19 08:32:09;;;;;;;5.33;4.83;;;8.40;99.90;;;;;;5000858;28;21225;-30
2023/12/19 08:34:40;;;;;;;6.17;5.13;;;8.40;99.90;;;;;;4982774;28;20474;-30
2023/12/19 08:37:06;;;;;;;6.63;5.30;;;8.40;99.90;;;;;;5000114;28;20543;-30
2023/12/19 08:39:32;;;;;;;5.10;4.60;;;8.50;99.90;;;;;;4998444;28;20452;-30
2023/12/19 08:41:59;;;;;;;4.90;4.50;;;8.50;99.90;;;;;;4981258;28;20465;-30
2023/12/19 08:44:26;;;;;;;5.80;4.93;;;8.50;99.90;;;;;;4978842;28;20489;-29
2023/12/19 08:46:53;;;;;;;5.33;4.63;;;8.50;99.90;;;;;;4980576;28;20456;-30
2023/12/19 08:49:19;;;;;;;5.13;4.63;;;8.50;99.90;;;;;;4962209;28;20453;-31
2023/12/19 08:51:46;;;;;;;8.10;4.57;;;8.50;99.90;;;;;;4979331;28;20433;-29
2023/12/19 08:54:15;;;;;;;5.43;4.83;;;8.50;99.90;;;;;;4980802;28;20414;-30
2023/12/19 08:56:45;;;;;;;5.43;4.93;;;8.50;99.90;;;;;;4979938;28;20456;-30
2023/12/19 08:59:11;;;;;;;5.57;5.07;;;8.50;99.90;;;;;;4978331;28;20794;-31
2023/12/19 09:01:37;;;;;;;7.40;4.73;;;8.50;99.90;;;;;;4968074;28;21337;-31
2023/12/19 09:04:03;;;;;;;5.53;4.50;;;8.50;99.90;;;;;;4985711;28;20461;-26
2023/12/19 09:06:29;;;;;;;4.50;4.07;;;8.50;99.90;;;;;;4996662;28;20451;-26
2023/12/19 09:08:59;;;;;;;4.90;4.30;;;8.50;99.90;;;;;;4997365;28;20428;-26
2023/12/19 09:11:25;;;;;;;4.93;4.07;;;8.50;99.90;;;;;;4990912;28;21143;-26
2023/12/19 09:13:54;;;;;;;4.80;4.37;;;8.50;99.90;;;;;;4995979;28;20478;-27
2023/12/19 09:16:25;;;;;;;4.97;4.47;;;8.50;99.90;;;;;;4998727;28;20456;-26
2023/12/19 09:18:55;;;;;;;4.03;3.63;;;8.50;99.90;;;;;;4999946;28;21111;-25
2023/12/19 09:21:23;;;;;;;4.60;4.00;;;8.50;99.90;;;;;;4994801;28;20485;-27
2023/12/19 09:23:51;;;;;;;5.47;4.53;;;8.50;99.90;;;;;;4991899;28;21323;-25
2023/12/19 09:26:17;;;;;;;5.07;4.30;;;8.50;99.90;;;;;;4993158;28;20547;-27
2023/12/19 09:28:43;;;;;;;5.20;4.23;;;8.50;99.90;;;;;;4993585;28;20441;-28
2023/12/19 09:31:12;;;;;;;4.43;3.70;;;8.50;99.90;;;;;;4998570;28;20437;-29
2023/12/19 09:33:41;;;;;;;4.87;4.07;;;8.50;99.90;;;;;;4988598;28;20467;-28
2023/12/19 09:36:08;;;;;;;6.67;4.00;;;8.50;99.90;;;;;;4987822;28;20448;-30
2023/12/19 09:38:35;;;;;;;4.50;4.10;;;8.50;99.90;;;;;;4989373;28;20581;-28
2023/12/19 09:41:04;;;;;;;4.80;3.90;;;8.50;99.90;;;;;;4985909;28;21073;-28
2023/12/19 09:43:33;;;;;;;3.70;3.20;;;8.50;99.90;;;;;;4995305;28;20456;-28
2023/12/19 09:46:03;;;;;;;3.93;3.50;;;8.50;99.90;;;;;;4992132;28;21562;-28
2023/12/19 09:48:33;;;;;;;5.53;4.03;;;8.50;99.90;;;;;;4995176;28;20470;-28
2023/12/19 09:51:05;;;;;;;4.90;3.60;;;8.50;99.90;;;;;;4990445;28;20890;-29
2023/12/19 09:53:33;;;;;;;4.23;3.87;;;8.50;99.90;;;;;;4979557;28;20440;-29
2023/12/19 09:56:00;;;;;;;5.30;4.67;;;8.50;99.90;;;;;;4994912;28;20441;-30
2023/12/19 09:58:31;;;;;;;4.63;3.83;;;8.50;99.90;;;;;;4991754;28;20486;-29
2023/12/19 10:01:00;;;;;;;3.83;3.37;;;8.60;99.90;;;;;;4998072;28;20472;-29
2023/12/19 10:03:30;;;;;;;4.60;3.80;;;8.50;99.90;;;;;;4980339;28;20518;-27
2023/12/19 10:06:01;;;;;;;4.20;3.63;;;8.60;99.90;;;;;;4975885;28;20483;-28
2023/12/19 10:08:27;;;;;;;4.30;3.50;;;8.50;99.90;;;;;;4990963;28;20425;-25
2023/12/19 10:10:55;;;;;;;5.13;3.30;;;8.60;99.90;;;;;;4985441;28;20432;-27
2023/12/19 10:13:33;;;;;;;4.33;3.43;;;8.60;99.90;;;;;;4995293;28;20424;-25
2023/12/19 10:16:04;;;;;;;3.97;3.37;;;8.60;99.90;;;;;;4979342;28;20460;-26
2023/12/19 10:18:30;;;;;;;6.50;3.70;;;8.60;99.90;;;;;;4992560;28;20432;-27
2023/12/19 10:21:09;;;;;;;4.73;3.87;;;8.60;99.90;;;;;;4972724;28;20487;-26
2023/12/19 10:23:38;;;;;;;5.90;3.70;;;8.60;99.90;;;;;;4998006;28;20440;-26
2023/12/19 10:26:05;;;;;;;3.73;3.43;;;8.60;99.90;;;;;;4986745;28;20553;-25
2023/12/19 10:28:37;;;;;;;4.67;3.40;;;8.60;99.90;;;;;;5001358;28;20429;-24
2023/12/19 10:31:06;;;;;;;4.20;3.80;;;8.60;99.90;;;;;;4988767;28;20423;-26
2023/12/19 10:33:48;;;;;;;5.83;3.93;;;8.60;99.90;;;;;;4996973;28;20451;-24
2023/12/19 10:36:32;;;;;;;4.90;4.13;;;8.60;99.90;;;;;;4995376;28;20474;-25
2023/12/19 10:39:03;;;;;;;5.37;3.87;;;8.60;99.90;;;;;;4996968;28;20532;-26
2023/12/19 10:41:31;;;;;;;3.97;3.50;;;8.60;99.90;;;;;;4998422;28;21419;-26
2023/12/19 10:43:59;;;;;;;4.23;3.80;;;8.60;99.90;;;;;;5000873;28;20432;-24
2023/12/19 10:46:27;;;;;;;3.80;3.37;;;8.60;99.90;;;;;;4992795;28;20450;-24
2023/12/19 10:49:05;;;;;;;4.30;3.30;;;8.60;99.90;;;;;;4996616;28;20931;-25
2023/12/19 10:51:41;;;;;;;5.10;3.87;;;8.60;99.90;;;;;;5000464;28;20755;-26
2023/12/19 10:54:14;;;;;;;8.47;4.00;;;8.60;99.90;;;;;;5000759;28;20516;-25
2023/12/19 10:57:02;;;;;;;6.17;3.23;;;8.60;99.90;;;;;;4991958;28;20455;-25
2023/12/19 11:00:09;;;;;;;3.93;3.23;;;8.60;99.90;;;;;;4999507;28;20455;-24
2023/12/19 11:02:49;;;;;;;5.17;4.03;;;8.60;99.90;;;;;;4990958;28;20433;-24
2023/12/19 11:05:36;;;;;;;4.50;3.50;;;8.60;99.90;;;;;;4999081;28;21095;-25
2023/12/19 11:08:26;;;;;;;5.40;4.10;;;8.60;99.90;;;;;;4997465;28;20907;-25
2023/12/19 11:11:11;;;;;;;5.40;3.40;;;8.60;99.90;;;;;;4998793;28;20444;-25
2023/12/19 11:13:41;;;;;;;4.00;3.60;;;8.60;99.90;;;;;;4978582;28;20429;-25
2023/12/19 11:16:34;;;;;;;5.50;3.63;;;8.70;99.90;;;;;;4973167;28;20446;-26
2023/12/19 11:19:08;;;;;;;5.73;3.83;;;8.70;99.90;;;;;;4999033;28;20592;-26
2023/12/19 11:21:45;;;;;;;5.33;3.73;;;8.70;99.90;;;;;;4994445;28;21258;-23
2023/12/19 11:24:24;;;;;;;5.17;3.80;;;8.70;99.90;;;;;;4988767;28;20421;-23
2023/12/19 11:27:16;;;;;;;4.40;3.80;;;8.70;99.90;;;;;;4981783;28;20504;-24
2023/12/19 11:29:46;;;;;;;6.13;4.17;;;8.70;99.90;;;;;;4993512;28;21014;-24
2023/12/19 11:32:34;;;;;;;6.50;3.90;;;8.70;99.90;;;;;;4995851;28;21169;-26
2023/12/19 11:35:12;;;;;;;3.60;3.30;;;8.70;99.90;;;;;;4985663;28;20456;-26
2023/12/19 11:37:43;;;;;;;4.73;3.60;;;8.70;99.90;;;;;;4998917;28;20421;-25
2023/12/19 11:40:18;;;;;;;5.40;4.00;;;8.70;99.90;;;;;;4949003;28;20494;-25
2023/12/19 11:42:48;;;;;;;4.67;3.90;;;8.70;99.90;;;;;;4998894;28;21101;-25
2023/12/19 11:45:17;;;;;;;6.17;3.50;;;8.70;99.90;;;;;;4993103;28;20453;-25
2023/12/19 11:47:52;;;;;;;7.47;3.40;;;8.70;99.90;;;;;;4995169;28;20432;-25
2023/12/19 11:50:40;;;;;;;4.80;3.80;;;8.70;99.90;;;;;;4993650;28;20448;-25
2023/12/19 11:53:06;;;;;;;4.63;4.00;;;8.70;99.90;;;;;;4986995;28;20472;-25
2023/12/19 11:55:33;;;;;;;4.30;3.90;;;8.70;99.90;;;;;;4994665;28;20817;-25
2023/12/19 11:58:12;;;;;;;4.30;3.87;;;8.70;99.90;;;;;;4994940;28;20466;-25
2023/12/19 12:00:41;;;;;;;3.93;3.53;;;8.80;99.90;;;;;;4998105;28;21042;-25
2023/12/19 12:03:08;;;;;;;4.43;4.03;;;8.70;99.90;;;;;;4997881;28;20472;-26
2023/12/19 12:05:36;;;;;;;5.13;3.77;;;8.80;99.90;;;;;;4999708;28;20875;-25
2023/12/19 12:08:03;;;;;;;7.53;3.83;;;8.80;99.90;;;;;;4997695;28;20421;-25
2023/12/19 12:10:29;;;;;;;5.20;4.70;;;8.80;99.90;;;;;;4996285;28;20532;-25
2023/12/19 12:12:58;;;;;;;4.10;3.70;;;8.80;99.90;;;;;;4986701;28;20479;-25
2023/12/19 12:15:25;;;;;;;5.57;3.97;;;8.80;99.90;;;;;;4991915;28;20512;-25
2023/12/19 12:18:13;;;;;;;4.10;3.47;;;8.80;99.90;;;;;;4991995;28;20515;-25
2023/12/19 12:20:39;;;;;;;4.63;3.33;;;8.80;99.90;;;;;;4993715;28;20478;-25
2023/12/19 12:23:05;;;;;;;9.20;3.60;;;8.80;99.90;;;;;;4985100;28;20543;-25
2023/12/19 12:25:31;;;;;;;5.03;4.20;;;8.80;99.90;;;;;;4991682;28;21269;-25
2023/12/19 12:28:10;;;;;;;6.87;3.33;;;8.80;99.90;;;;;;4977794;28;21156;-25
2023/12/19 12:30:38;;;;;;;4.80;3.30;;;8.80;99.90;;;;;;4987742;28;20786;-25
2023/12/19 12:33:04;;;;;;;5.80;4.77;;;8.80;99.90;;;;;;4991488;28;20457;-25
2023/12/19 12:35:35;;;;;;;5.00;3.90;;;8.80;99.90;;;;;;4993916;28;20491;-25
2023/12/19 12:38:04;;;;;;;4.60;3.50;;;8.80;99.90;;;;;;4994464;28;20444;-25
2023/12/19 12:40:36;;;;;;;5.70;3.80;;;8.80;99.90;;;;;;4987320;28;20617;-25
2023/12/19 12:43:28;;;;;;;4.73;4.07;;;8.80;99.90;;;;;;4993441;28;20518;-25
2023/12/19 12:46:09;;;;;;;4.47;4.00;;;8.80;99.90;;;;;;4994084;28;20451;-25
2023/12/19 12:48:37;;;;;;;5.50;4.50;;;8.80;99.90;;;;;;4988494;28;20454;-25
2023/12/19 12:51:07;;;;;;;4.60;3.70;;;8.80;99.90;;;;;;4988823;28;21118;-25
2023/12/19 12:53:34;;;;;;;5.03;3.60;;;8.80;99.90;;;;;;4991875;28;20528;-25
2023/12/19 12:56:14;;;;;;;6.63;3.80;;;8.80;99.90;;;;;;4997328;28;20469;-25
2023/12/19 12:58:42;;;;;;;3.93;3.53;;;8.80;99.90;;;;;;4993306;28;20445;-25
2023/12/19 13:01:09;;;;;;;9.20;4.80;;;8.80;99.90;;;;;;4984095;28;21053;-25
2023/12/19 13:03:36;;;;;;;5.10;3.70;;;8.80;99.90;;;;;;4993887;28;20433;-25
2023/12/19 13:06:04;;;;;;;7.90;3.77;;;8.80;99.90;;;;;;4990968;28;20509;-25
2023/12/19 13:08:32;;;;;;;5.43;3.40;;;8.80;99.90;;;;;;4994145;28;20453;-25
2023/12/19 13:11:00;;;;;;;6.43;3.47;;;8.80;99.90;;;;;;4980043;28;20444;-25